Time;durP1;ratioP1;P1;durP2;ratioP2;P2;SDS_P1;SDS_P2;PMS_P1;PMS_P2;Temp;Humidity;BMP_temperature;BMP_pressure;BME280_temperature;BME280_humidity;BME280_pressure;Samples;Min_cycle;Max_cycle;Signal;HPM_P1;HPM_P2
2021/12/22 00:00:15;;;;;;;39.15;34.50;;;4.10;99.90;;;;;;4158691;28;20037;-48
2021/12/22 00:02:17;;;;;;;43.33;34.47;;;4.10;99.90;;;;;;4161589;28;20041;-47
2021/12/22 00:04:24;;;;;;;45.70;36.38;;;4.10;99.90;;;;;;4159854;28;20444;-50
2021/12/22 00:06:29;;;;;;;36.53;32.63;;;4.10;99.90;;;;;;4161110;28;20677;-49
2021/12/22 00:08:31;;;;;;;40.60;31.75;;;4.10;99.90;;;;;;4158828;28;20137;-51
2021/12/22 00:10:33;;;;;;;35.28;31.55;;;4.20;99.90;;;;;;4161507;28;20041;-52
2021/12/22 00:12:35;;;;;;;40.20;31.80;;;4.20;99.90;;;;;;4158964;28;20038;-53
2021/12/22 00:14:38;;;;;;;33.35;29.73;;;4.20;99.90;;;;;;4162401;28;20041;-51
2021/12/22 00:16:40;;;;;;;36.33;30.92;;;4.20;99.90;;;;;;4159734;28;20596;-51
2021/12/22 00:18:42;;;;;;;34.42;29.60;;;4.20;99.90;;;;;;4159454;28;20119;-49
2021/12/22 00:20:44;;;;;;;34.60;28.02;;;4.10;99.90;;;;;;4157440;28;20045;-49
2021/12/22 00:22:47;;;;;;;32.15;27.95;;;4.10;99.90;;;;;;4154209;28;20038;-50
2021/12/22 00:24:49;;;;;;;30.85;27.80;;;4.20;99.90;;;;;;4152333;28;20038;-48
2021/12/22 00:26:53;;;;;;;32.67;29.10;;;4.20;99.90;;;;;;4160721;28;20041;-49
2021/12/22 00:28:55;;;;;;;32.83;28.20;;;4.20;99.90;;;;;;4157819;28;20064;-47
2021/12/22 00:30:57;;;;;;;32.70;28.85;;;4.20;99.90;;;;;;4161819;28;20425;-48
2021/12/22 00:33:04;;;;;;;37.45;29.77;;;4.20;99.90;;;;;;4155282;28;20140;-48
2021/12/22 00:35:07;;;;;;;41.72;33.90;;;4.20;99.90;;;;;;4159935;28;20107;-51
2021/12/22 00:37:09;;;;;;;;;;;4.20;99.90;;;;;;4159886;28;20053;-52
2021/12/22 00:39:11;;;;;;;48.55;39.60;;;4.10;99.90;;;;;;4159920;28;19920;-52
2021/12/22 00:41:14;;;;;;;50.47;40.80;;;4.10;99.90;;;;;;4159638;28;20509;-52
2021/12/22 00:43:17;;;;;;;57.53;43.78;;;4.00;99.90;;;;;;4161048;28;20048;-54
2021/12/22 00:45:23;;;;;;;56.08;41.63;;;4.00;99.90;;;;;;4159664;28;20045;-53
2021/12/22 00:47:28;;;;;;;53.65;42.67;;;4.00;99.90;;;;;;4158828;28;20065;-52
2021/12/22 00:49:31;;;;;;;56.10;44.47;;;4.00;99.90;;;;;;4148255;28;20088;-53
2021/12/22 00:51:33;;;;;;;;;;;3.90;99.90;;;;;;4160108;28;20552;-50
2021/12/22 00:53:35;;;;;;;55.58;43.42;;;3.90;99.90;;;;;;4159320;28;19936;-49
2021/12/22 00:55:37;;;;;;;51.58;43.53;;;3.90;99.90;;;;;;4161394;28;20445;-50
2021/12/22 00:57:39;;;;;;;53.10;43.78;;;3.90;99.90;;;;;;4155231;28;20041;-49
2021/12/22 00:59:43;;;;;;;52.35;41.88;;;3.80;99.90;;;;;;4159648;28;20033;-51
2021/12/22 01:01:45;;;;;;;55.28;41.78;;;3.80;99.90;;;;;;4147794;28;20498;-50
2021/12/22 01:03:47;;;;;;;;;;;3.80;99.90;;;;;;4161167;28;20499;-51
2021/12/22 01:05:49;;;;;;;46.97;37.38;;;3.80;99.90;;;;;;4161159;28;19943;-49
2021/12/22 01:07:51;;;;;;;43.33;35.22;;;3.80;99.90;;;;;;4158771;28;20689;-49
2021/12/22 01:09:54;;;;;;;47.63;38.42;;;3.80;99.90;;;;;;4158279;28;20088;-51
2021/12/22 01:11:56;;;;;;;41.67;35.40;;;3.80;99.90;;;;;;4158920;28;20041;-49
2021/12/22 01:13:58;;;;;;;42.88;37.13;;;3.80;99.90;;;;;;4161160;28;20033;-49
2021/12/22 01:16:00;;;;;;;35.78;31.58;;;3.80;99.90;;;;;;4159107;28;20119;-48
2021/12/22 01:18:11;;;;;;;43.85;34.55;;;3.80;99.90;;;;;;4160634;28;20103;-52
2021/12/22 01:20:25;;;;;;;40.00;33.65;;;3.90;99.90;;;;;;4162069;28;20046;-51
2021/12/22 01:22:36;;;;;;;37.95;33.15;;;3.90;99.90;;;;;;4147345;28;20096;-52
2021/12/22 01:24:38;;;;;;;36.53;31.02;;;3.90;99.90;;;;;;4163024;28;20038;-52
2021/12/22 01:26:45;;;;;;;36.20;32.25;;;3.90;99.90;;;;;;4156206;28;20038;-52
2021/12/22 01:28:47;;;;;;;37.97;33.10;;;3.90;99.90;;;;;;4163705;28;20041;-55
2021/12/22 01:30:50;;;;;;;34.85;31.15;;;4.00;99.90;;;;;;4164290;28;20065;-53
2021/12/22 01:32:55;;;;;;;41.50;32.25;;;4.00;99.90;;;;;;4161803;28;20041;-51
2021/12/22 01:34:57;;;;;;;41.90;33.53;;;4.00;99.90;;;;;;4164044;28;20034;-51
2021/12/22 01:36:59;;;;;;;33.75;30.55;;;4.00;99.90;;;;;;4163021;28;20095;-52
2021/12/22 01:39:02;;;;;;;33.05;29.45;;;4.00;99.90;;;;;;4158161;28;20050;-50
2021/12/22 01:41:05;;;;;;;32.55;29.25;;;4.00;99.90;;;;;;4161871;28;20131;-49
2021/12/22 01:43:08;;;;;;;30.85;27.48;;;4.00;99.90;;;;;;4163682;28;20049;-49
2021/12/22 01:50:00;;;;;;;31.80;28.70;;;4.10;99.90;;;;;;4163616;28;20053;-49
2021/12/22 01:52:07;;;;;;;68.55;42.75;;;4.10;99.90;;;;;;4161746;28;20041;-49
2021/12/22 01:54:41;;;;;;;52.08;36.15;;;4.10;99.90;;;;;;4163853;28;20033;-52
2021/12/22 01:56:43;;;;;;;38.30;30.60;;;4.10;99.90;;;;;;4160779;28;20077;-48
2021/12/22 01:58:49;;;;;;;39.67;29.50;;;4.10;99.90;;;;;;4162445;28;20103;-50
2021/12/22 02:00:51;;;;;;;31.85;28.50;;;4.10;99.90;;;;;;4160091;28;20042;-49
2021/12/22 02:02:55;;;;;;;32.50;29.02;;;4.10;99.90;;;;;;4163868;28;20055;-48
2021/12/22 02:04:57;;;;;;;41.00;33.35;;;4.10;99.90;;;;;;4162010;28;20511;-50
2021/12/22 02:07:00;;;;;;;31.42;28.25;;;4.20;99.90;;;;;;4163463;28;20049;-50
2021/12/22 02:09:02;;;;;;;35.35;31.75;;;4.10;99.90;;;;;;4161002;28;20041;-49
2021/12/22 02:11:06;;;;;;;38.80;30.70;;;4.20;99.90;;;;;;4163813;28;20037;-51
2021/12/22 02:13:14;;;;;;;35.22;30.25;;;4.20;99.90;;;;;;4161694;28;20041;-51
2021/12/22 02:15:16;;;;;;;36.40;30.70;;;4.20;99.90;;;;;;4161969;28;20445;-50
2021/12/22 02:17:18;;;;;;;38.38;30.33;;;4.10;99.90;;;;;;4161563;28;20060;-48
2021/12/22 02:19:20;;;;;;;36.35;30.75;;;4.10;99.90;;;;;;4162987;28;20030;-48
2021/12/22 02:21:25;;;;;;;36.55;31.45;;;4.10;99.90;;;;;;4161381;28;20034;-49
2021/12/22 02:23:27;;;;;;;37.38;32.78;;;4.10;99.90;;;;;;4159772;28;20045;-51
2021/12/22 02:25:35;;;;;;;35.45;30.50;;;4.10;99.90;;;;;;4152051;28;20045;-50
2021/12/22 02:27:50;;;;;;;34.72;30.35;;;4.10;99.90;;;;;;4160856;28;20045;-48
2021/12/22 02:29:58;;;;;;;36.55;31.65;;;4.10;99.90;;;;;;4160466;28;20044;-47
2021/12/22 02:32:09;;;;;;;35.47;28.95;;;4.10;99.90;;;;;;4173107;28;20093;-46
2021/12/22 02:34:15;;;;;;;32.85;28.92;;;4.20;99.90;;;;;;4157229;28;20124;-48
2021/12/22 02:38:20;;;;;;;34.05;30.48;;;4.10;99.90;;;;;;4153989;28;20493;-48
2021/12/22 02:40:27;;;;;;;31.90;28.50;;;4.20;99.90;;;;;;4159101;28;20489;-48
2021/12/22 02:42:33;;;;;;;42.63;32.10;;;4.10;99.90;;;;;;4160797;28;20056;-49
2021/12/22 02:44:35;;;;;;;35.60;31.80;;;4.10;99.90;;;;;;4160093;28;20100;-49
2021/12/22 02:46:38;;;;;;;34.88;28.65;;;4.10;99.90;;;;;;4158576;28;20042;-50
2021/12/22 02:48:41;;;;;;;39.10;29.13;;;4.10;99.90;;;;;;4160872;28;20037;-48
2021/12/22 02:50:43;;;;;;;34.95;29.75;;;4.10;99.90;;;;;;4150931;28;20453;-49
2021/12/22 02:53:04;;;;;;;36.92;32.47;;;4.10;99.90;;;;;;4161663;28;20041;-49
2021/12/22 02:55:07;;;;;;;36.17;30.88;;;4.10;99.90;;;;;;4160807;28;20045;-49
2021/12/22 02:57:22;;;;;;;39.28;31.90;;;4.10;99.90;;;;;;4155238;28;20077;-50
2021/12/22 02:59:47;;;;;;;42.55;32.60;;;4.10;99.90;;;;;;4157928;28;20045;-50
2021/12/22 03:04:13;;;;;;;35.65;30.30;;;4.10;99.90;;;;;;4161653;28;20484;-49
2021/12/22 03:06:23;;;;;;;32.90;28.75;;;4.10;99.90;;;;;;4157512;28;20528;-48
2021/12/22 03:08:25;;;;;;;45.33;35.17;;;4.10;99.90;;;;;;4159959;28;20045;-48
2021/12/22 03:10:28;;;;;;;49.55;37.65;;;4.10;99.90;;;;;;4146183;28;20077;-47
2021/12/22 03:12:32;;;;;;;41.78;33.88;;;4.10;99.90;;;;;;4161032;28;20033;-51
2021/12/22 03:14:34;;;;;;;39.72;34.05;;;4.10;99.90;;;;;;4162703;28;20048;-48
2021/12/22 03:16:36;;;;;;;43.17;34.55;;;4.10;99.90;;;;;;4162273;28;20067;-50
2021/12/22 03:18:39;;;;;;;36.25;32.47;;;4.10;99.90;;;;;;4157827;28;20203;-50
2021/12/22 03:20:44;;;;;;;49.22;35.70;;;4.10;99.90;;;;;;4158030;28;20045;-48
2021/12/22 03:22:47;;;;;;;37.42;33.08;;;4.10;99.90;;;;;;4162967;28;20080;-50
2021/12/22 03:24:51;;;;;;;33.00;28.27;;;4.10;99.90;;;;;;4161349;28;20034;-50
2021/12/22 03:26:53;;;;;;;46.83;36.30;;;4.10;99.90;;;;;;4145048;28;20594;-49
2021/12/22 03:28:55;;;;;;;;;;;4.10;99.90;;;;;;4162730;28;20715;-49
2021/12/22 03:30:59;;;;;;;47.28;38.63;;;4.10;99.90;;;;;;4158191;28;19921;-48
2021/12/22 03:33:01;;;;;;;50.20;39.38;;;4.00;99.90;;;;;;4159811;28;20103;-49
2021/12/22 03:35:04;;;;;;;45.75;38.85;;;4.00;99.90;;;;;;4161329;28;20498;-48
2021/12/22 03:37:07;;;;;;;43.38;37.50;;;4.00;99.90;;;;;;4158868;28;20037;-51
2021/12/22 03:39:12;;;;;;;54.83;39.47;;;4.00;99.90;;;;;;4162624;28;20045;-49
2021/12/22 03:41:14;;;;;;;38.63;33.80;;;4.00;99.90;;;;;;4160616;28;20464;-49
2021/12/22 03:43:17;;;;;;;39.28;33.22;;;4.00;99.90;;;;;;4161185;28;20041;-47
2021/12/22 03:45:19;;;;;;;37.58;33.50;;;4.00;99.90;;;;;;4160493;28;20120;-49
2021/12/22 03:47:21;;;;;;;40.70;35.05;;;4.00;99.90;;;;;;4161815;28;20563;-50
2021/12/22 03:49:23;;;;;;;;;;;4.00;99.90;;;;;;4160134;28;20503;-50
2021/12/22 03:51:29;;;;;;;36.00;32.33;;;4.00;99.90;;;;;;4160704;28;19925;-49
2021/12/22 03:53:31;;;;;;;37.38;33.55;;;4.00;99.90;;;;;;4160183;28;20100;-51
2021/12/22 03:55:33;;;;;;;47.20;36.00;;;4.00;99.90;;;;;;4160594;28;20076;-51
2021/12/22 03:57:35;;;;;;;36.15;32.50;;;4.00;99.90;;;;;;4156340;28;20049;-50
2021/12/22 03:59:37;;;;;;;40.63;34.53;;;4.00;99.90;;;;;;4161681;28;20405;-50
2021/12/22 04:01:39;;;;;;;39.55;34.47;;;4.00;99.90;;;;;;4160526;28;20068;-50
2021/12/22 04:03:44;;;;;;;45.08;39.00;;;3.90;99.90;;;;;;4160425;28;20045;-49
2021/12/22 04:05:47;;;;;;;43.53;38.13;;;3.90;99.90;;;;;;4158816;28;20045;-49
2021/12/22 04:07:50;;;;;;;47.00;40.00;;;3.90;99.90;;;;;;4158633;28;20080;-48
2021/12/22 04:09:53;;;;;;;55.58;41.20;;;3.90;99.90;;;;;;4161045;28;20087;-51
2021/12/22 04:11:55;;;;;;;50.95;40.50;;;3.90;99.90;;;;;;4160552;28;20033;-50
2021/12/22 04:13:57;;;;;;;54.50;42.17;;;3.90;99.90;;;;;;4160267;28;20041;-49
2021/12/22 04:15:59;;;;;;;55.85;43.60;;;3.80;99.90;;;;;;4161325;28;20037;-51
2021/12/22 04:18:02;;;;;;;47.50;41.53;;;3.80;99.90;;;;;;4158221;28;20647;-49
2021/12/22 04:20:04;;;;;;;;;;;3.80;99.90;;;;;;4160853;28;20088;-48
2021/12/22 04:22:07;;;;;;;44.95;36.22;;;3.80;99.90;;;;;;4158933;28;19975;-48
2021/12/22 04:24:10;;;;;;;44.08;39.08;;;3.90;99.90;;;;;;4158993;28;20053;-50
2021/12/22 04:26:12;;;;;;;43.45;37.13;;;3.80;99.90;;;;;;4152577;28;20038;-51
2021/12/22 04:28:15;;;;;;;43.40;38.03;;;3.80;99.90;;;;;;4153364;28;20470;-51
2021/12/22 04:30:18;;;;;;;42.00;37.50;;;3.80;99.90;;;;;;4157669;28;20083;-48
2021/12/22 04:32:20;;;;;;;42.75;37.28;;;3.90;99.90;;;;;;4158402;28;20069;-50
2021/12/22 04:34:22;;;;;;;44.38;36.35;;;3.90;99.90;;;;;;4159335;28;20387;-51
2021/12/22 04:36:24;;;;;;;37.47;33.58;;;3.90;99.90;;;;;;4162058;28;20125;-50
2021/12/22 04:38:26;;;;;;;44.00;39.17;;;3.90;99.90;;;;;;4156305;28;20042;-49
2021/12/22 04:40:29;;;;;;;40.75;36.28;;;3.90;99.90;;;;;;4161572;28;20034;-50
2021/12/22 04:42:31;;;;;;;;;;;3.90;99.90;;;;;;4160715;28;20033;-48
2021/12/22 04:44:33;;;;;;;46.97;40.70;;;3.90;99.90;;;;;;4159601;28;19920;-48
2021/12/22 04:46:35;;;;;;;49.53;41.00;;;3.80;99.90;;;;;;4158375;28;20088;-48
2021/12/22 04:48:37;;;;;;;45.40;40.60;;;3.80;99.90;;;;;;4160446;28;20042;-50
2021/12/22 04:50:40;;;;;;;45.72;39.97;;;3.90;99.90;;;;;;4158434;28;20517;-49
2021/12/22 04:52:57;;;;;;;48.33;43.30;;;3.90;99.90;;;;;;4166686;28;20052;-48
2021/12/22 04:55:06;;;;;;;44.95;40.55;;;3.90;99.90;;;;;;4149539;28;20045;-50
2021/12/22 04:57:08;;;;;;;48.53;43.55;;;3.90;99.90;;;;;;4160570;28;20140;-51
2021/12/22 04:59:11;;;;;;;47.67;42.60;;;3.90;99.90;;;;;;4159597;28;20050;-50
2021/12/22 05:01:13;;;;;;;51.80;43.63;;;3.90;99.90;;;;;;4160981;28;20045;-49
2021/12/22 05:03:15;;;;;;;50.40;41.90;;;3.90;99.90;;;;;;4159165;28;20120;-49
2021/12/22 05:05:17;;;;;;;45.35;40.53;;;3.90;99.90;;;;;;4166411;28;20048;-49
2021/12/22 05:07:19;;;;;;;43.67;39.38;;;3.90;99.90;;;;;;4151652;28;20058;-50
2021/12/22 05:09:22;;;;;;;45.28;40.50;;;3.90;99.90;;;;;;4160401;28;20036;-50
2021/12/22 05:11:24;;;;;;;50.33;42.15;;;3.90;99.90;;;;;;4158116;28;20037;-48
2021/12/22 05:13:27;;;;;;;49.20;44.28;;;3.90;99.90;;;;;;4161330;28;20037;-48
2021/12/22 05:15:36;;;;;;;46.60;41.72;;;3.90;99.90;;;;;;4158670;28;20041;-50
2021/12/22 05:18:02;;;;;;;47.17;42.22;;;3.90;99.90;;;;;;4159575;28;20040;-49
2021/12/22 05:20:01;;;;;;;48.97;39.63;;;3.90;99.90;;;;;;4153156;28;20148;-48
2021/12/22 05:22:03;;;;;;;42.60;36.78;;;4.00;99.90;;;;;;4149838;28;20041;-51
2021/12/22 05:24:05;;;;;;;45.00;36.00;;;3.90;99.90;;;;;;4149628;28;20048;-48
2021/12/22 05:26:09;;;;;;;47.33;35.65;;;3.90;99.90;;;;;;4153035;28;20126;-49
2021/12/22 05:28:11;;;;;;;39.17;35.10;;;4.00;99.90;;;;;;4147787;28;20088;-48
2021/12/22 05:30:13;;;;;;;43.47;34.20;;;4.00;99.90;;;;;;4161703;28;20064;-50
2021/12/22 05:32:15;;;;;;;44.72;36.50;;;3.90;99.90;;;;;;4158979;28;20493;-49
2021/12/22 05:34:17;;;;;;;44.45;38.13;;;3.90;99.90;;;;;;4160440;28;20099;-48
2021/12/22 05:36:19;;;;;;;43.13;36.78;;;3.90;99.90;;;;;;4147332;28;20068;-48
2021/12/22 05:38:22;;;;;;;39.70;35.47;;;3.90;99.90;;;;;;4160586;28;20080;-49
2021/12/22 05:40:27;;;;;;;43.28;35.30;;;3.90;99.90;;;;;;4149996;28;20049;-47
2021/12/22 05:42:30;;;;;;;49.38;38.42;;;3.80;99.90;;;;;;4160068;28;20037;-51
2021/12/22 05:44:32;;;;;;;43.40;38.15;;;3.80;99.90;;;;;;4158415;28;20065;-49
2021/12/22 05:46:34;;;;;;;37.88;33.92;;;3.80;99.90;;;;;;4159989;28;20723;-50
2021/12/22 05:48:36;;;;;;;37.42;33.58;;;3.80;99.90;;;;;;4158876;28;20038;-49
2021/12/22 05:50:38;;;;;;;36.00;32.10;;;3.80;99.90;;;;;;4156392;28;20065;-48
2021/12/22 05:52:40;;;;;;;42.10;35.50;;;3.80;99.90;;;;;;4144828;28;20049;-48
2021/12/22 05:54:43;;;;;;;42.20;34.25;;;3.80;99.90;;;;;;4160946;28;20038;-51
2021/12/22 05:56:45;;;;;;;40.67;34.53;;;3.80;99.90;;;;;;4159095;28;20069;-50
2021/12/22 05:58:47;;;;;;;45.17;37.95;;;3.70;99.90;;;;;;4161056;28;20038;-49
2021/12/22 06:00:50;;;;;;;38.95;33.13;;;3.80;99.90;;;;;;4165270;28;20034;-48
2021/12/22 06:02:52;;;;;;;;;;;3.80;99.90;;;;;;4161679;28;20057;-51
2021/12/22 06:04:54;;;;;;;34.45;29.02;;;3.90;99.90;;;;;;4162821;28;19921;-50
2021/12/22 06:06:56;;;;;;;35.13;31.52;;;3.80;99.90;;;;;;4159547;28;20107;-49
2021/12/22 06:08:58;;;;;;;65.50;52.38;;;3.90;99.90;;;;;;4162884;28;20037;-49
2021/12/22 06:11:00;;;;;;;57.13;45.85;;;3.90;99.90;;;;;;4161979;28;20564;-48
2021/12/22 06:13:04;;;;;;;50.45;41.08;;;3.90;99.90;;;;;;4160152;28;20049;-48
2021/12/22 06:15:07;;;;;;;40.88;36.00;;;3.90;99.90;;;;;;4159948;28;20033;-49
2021/12/22 06:17:09;;;;;;;43.75;38.15;;;3.80;99.90;;;;;;4163470;28;20458;-50
2021/12/22 06:19:13;;;;;;;58.90;47.60;;;3.80;99.90;;;;;;4160483;28;20041;-51
2021/12/22 06:21:15;;;;;;;62.08;52.70;;;3.80;99.90;;;;;;4147447;28;20050;-51
2021/12/22 06:23:17;;;;;;;74.45;60.50;;;3.70;99.90;;;;;;4159885;28;20077;-50
2021/12/22 06:25:20;;;;;;;60.67;46.78;;;3.80;99.90;;;;;;4162209;28;20037;-49
2021/12/22 06:27:22;;;;;;;50.92;44.10;;;3.80;99.90;;;;;;4160465;28;20041;-53
2021/12/22 06:29:25;;;;;;;55.55;41.15;;;3.80;99.90;;;;;;4160904;28;20030;-52
2021/12/22 06:31:27;;;;;;;50.17;40.55;;;3.80;99.90;;;;;;4160666;28;20532;-51
2021/12/22 06:33:29;;;;;;;54.72;45.03;;;3.80;99.90;;;;;;4163232;28;20382;-52
2021/12/22 06:35:31;;;;;;;47.72;39.05;;;3.70;99.90;;;;;;4161826;28;20038;-52
2021/12/22 06:37:34;;;;;;;55.88;42.47;;;3.80;99.90;;;;;;4154238;28;20049;-52
2021/12/22 06:39:36;;;;;;;44.13;39.30;;;3.80;99.90;;;;;;4157978;28;20100;-52
2021/12/22 06:41:38;;;;;;;55.78;46.05;;;3.80;99.90;;;;;;4162341;28;20037;-52
2021/12/22 06:43:40;;;;;;;56.25;45.55;;;3.90;99.90;;;;;;4162410;28;20072;-53
2021/12/22 06:45:43;;;;;;;54.78;48.92;;;3.80;99.90;;;;;;4161576;28;20135;-52
2021/12/22 06:47:45;;;;;;;;;;;3.80;99.90;;;;;;4161808;28;20042;-53
2021/12/22 06:49:47;;;;;;;55.13;46.65;;;3.80;99.90;;;;;;4163929;28;19968;-52
2021/12/22 06:51:50;;;;;;;50.50;44.95;;;3.80;99.90;;;;;;4160653;28;20538;-51
2021/12/22 06:53:52;;;;;;;47.97;42.58;;;3.80;99.90;;;;;;4162599;28;20501;-53
2021/12/22 06:55:54;;;;;;;44.35;38.33;;;3.80;99.90;;;;;;4155803;28;20674;-52
2021/12/22 06:57:57;;;;;;;41.10;36.70;;;3.80;99.90;;;;;;4159595;28;20045;-52
2021/12/22 07:00:00;;;;;;;37.78;33.65;;;3.80;99.90;;;;;;4153949;28;20076;-51
2021/12/22 07:02:02;;;;;;;42.75;34.30;;;3.90;99.90;;;;;;4157689;28;20501;-51
2021/12/22 07:04:04;;;;;;;44.38;36.55;;;3.80;99.90;;;;;;4157367;28;20041;-52
2021/12/22 07:06:07;;;;;;;41.60;36.17;;;3.90;99.90;;;;;;4156922;28;20075;-53
2021/12/22 07:08:09;;;;;;;41.38;34.75;;;3.90;99.90;;;;;;4156100;28;20058;-53
2021/12/22 07:10:12;;;;;;;38.20;34.17;;;3.90;99.90;;;;;;4161197;28;20124;-52
2021/12/22 07:12:14;;;;;;;42.75;38.08;;;3.90;99.90;;;;;;4153520;28;20632;-52
2021/12/22 07:14:17;;;;;;;45.25;37.42;;;3.90;99.90;;;;;;4164490;28;20397;-51
2021/12/22 07:16:19;;;;;;;47.88;39.55;;;3.90;99.90;;;;;;4161000;28;20449;-52
2021/12/22 07:18:26;;;;;;;52.72;44.03;;;3.90;99.90;;;;;;4163628;28;20551;-51
2021/12/22 07:20:29;;;;;;;47.75;41.92;;;3.90;99.90;;;;;;4159547;28;20037;-53
2021/12/22 07:22:32;;;;;;;52.67;45.30;;;3.90;99.90;;;;;;4170678;28;20455;-52
2021/12/22 07:24:34;;;;;;;46.22;40.15;;;3.90;99.90;;;;;;4163122;28;20041;-52
2021/12/22 07:26:38;;;;;;;36.17;32.28;;;4.00;99.90;;;;;;4163234;28;20041;-52
2021/12/22 07:28:42;;;;;;;45.08;36.88;;;4.00;99.90;;;;;;4161202;28;20493;-52
2021/12/22 07:30:44;;;;;;;40.58;36.33;;;4.00;99.90;;;;;;4163200;28;20045;-52
2021/12/22 07:32:46;;;;;;;46.78;39.80;;;4.00;99.90;;;;;;4162234;28;20034;-52
2021/12/22 07:35:15;;;;;;;52.22;43.00;;;4.10;99.90;;;;;;4162954;28;20038;-52
2021/12/22 07:37:58;;;;;;;50.33;41.80;;;4.10;99.90;;;;;;4159565;28;20033;-52
2021/12/22 07:40:00;;;;;;;39.65;31.20;;;4.10;99.90;;;;;;4152367;28;20073;-53
2021/12/22 07:42:03;;;;;;;38.15;30.38;;;4.20;99.90;;;;;;4161242;28;20437;-52
2021/12/22 07:44:05;;;;;;;41.10;33.22;;;4.20;99.90;;;;;;4163527;28;20100;-50
2021/12/22 07:46:08;;;;;;;36.50;32.60;;;4.20;99.90;;;;;;4160970;28;20035;-50
2021/12/22 07:48:11;;;;;;;39.55;32.22;;;4.20;99.90;;;;;;4163398;28;20045;-48
2021/12/22 07:50:13;;;;;;;35.33;29.60;;;4.20;99.90;;;;;;4158813;28;20041;-51
2021/12/22 07:52:15;;;;;;;33.45;30.00;;;4.30;99.90;;;;;;4150854;28;20046;-50
2021/12/22 07:54:17;;;;;;;35.25;31.52;;;4.30;99.90;;;;;;4159181;28;20061;-52
2021/12/22 07:56:19;;;;;;;41.35;34.10;;;4.40;99.90;;;;;;4170068;28;20036;-49
2021/12/22 07:58:23;;;;;;;46.15;37.92;;;4.40;99.90;;;;;;4160769;28;20072;-51
2021/12/22 08:00:25;;;;;;;70.95;53.95;;;4.50;99.90;;;;;;4163338;28;20049;-52
2021/12/22 08:02:27;;;;;;;66.70;51.72;;;4.50;99.90;;;;;;4159658;28;20048;-52
2021/12/22 08:04:30;;;;;;;69.43;51.53;;;4.50;99.90;;;;;;4159606;28;20050;-50
2021/12/22 08:06:32;;;;;;;59.47;46.00;;;4.50;99.90;;;;;;4152911;28;20107;-52
2021/12/22 08:08:34;;;;;;;58.88;47.22;;;4.50;99.90;;;;;;4163027;28;20083;-53
2021/12/22 08:10:37;;;;;;;56.45;44.58;;;4.60;99.90;;;;;;4159845;28;20086;-52
2021/12/22 08:12:40;;;;;;;55.17;44.65;;;4.60;99.90;;;;;;4163177;28;20057;-52
2021/12/22 08:14:42;;;;;;;62.78;48.92;;;4.60;99.90;;;;;;4160210;28;20030;-52
2021/12/22 08:16:44;;;;;;;71.50;51.28;;;4.60;99.90;;;;;;4163563;28;20032;-52
2021/12/22 08:18:46;;;;;;;68.90;53.33;;;4.60;99.90;;;;;;4155635;28;20045;-52
2021/12/22 08:20:48;;;;;;;70.82;52.92;;;4.60;99.90;;;;;;4159500;28;20049;-52
2021/12/22 08:22:51;;;;;;;62.13;48.67;;;4.50;99.90;;;;;;4161227;28;20041;-51
2021/12/22 08:24:53;;;;;;;65.75;50.25;;;4.50;99.90;;;;;;4162160;28;20490;-52
2021/12/22 08:26:55;;;;;;;52.65;44.25;;;4.50;99.90;;;;;;4157860;28;20049;-53
2021/12/22 08:28:57;;;;;;;52.03;40.97;;;4.50;99.90;;;;;;4162416;28;20033;-52
2021/12/22 08:30:59;;;;;;;51.60;41.97;;;4.50;99.90;;;;;;4159743;28;20061;-53
2021/12/22 08:33:09;;;;;;;49.30;44.53;;;4.50;99.90;;;;;;4161925;28;20156;-51
2021/12/22 08:35:13;;;;;;;47.42;42.30;;;4.50;99.90;;;;;;4150207;28;20055;-52
2021/12/22 08:39:36;;;;;;;57.17;51.10;;;4.50;99.90;;;;;;4159799;28;20459;-52
2021/12/22 08:41:40;;;;;;;55.53;49.55;;;4.50;99.90;;;;;;4163502;28;20539;-53
2021/12/22 08:43:42;;;;;;;58.35;52.67;;;4.50;99.90;;;;;;4159452;28;20448;-53
2021/12/22 08:45:45;;;;;;;48.15;42.70;;;4.50;99.90;;;;;;4161118;28;20087;-51
2021/12/22 08:47:47;;;;;;;54.50;49.45;;;4.50;99.90;;;;;;4159422;28;20041;-52
2021/12/22 08:49:49;;;;;;;51.38;46.30;;;4.60;99.90;;;;;;4161949;28;20042;-51
2021/12/22 08:51:52;;;;;;;49.88;45.13;;;4.60;99.90;;;;;;4162095;28;20079;-52
2021/12/22 08:53:54;;;;;;;47.20;42.50;;;4.60;99.90;;;;;;4164417;28;20068;-52
2021/12/22 08:55:56;;;;;;;43.90;39.92;;;4.60;99.90;;;;;;4160729;28;20501;-53
2021/12/22 08:57:58;;;;;;;51.15;45.75;;;4.60;99.90;;;;;;4161663;28;20045;-52
2021/12/22 09:00:05;;;;;;;64.32;55.78;;;4.60;99.90;;;;;;4150611;28;20501;-52
2021/12/22 09:02:08;;;;;;;65.88;55.80;;;4.70;99.90;;;;;;4158632;28;20054;-53
2021/12/22 09:04:11;;;;;;;39.45;35.40;;;4.70;99.90;;;;;;4150869;28;20033;-51
2021/12/22 09:06:13;;;;;;;;;;;4.80;99.90;;;;;;4163526;28;20041;-52
2021/12/22 09:08:15;;;;;;;33.67;30.25;;;4.80;99.90;;;;;;4159246;28;19967;-52
2021/12/22 09:10:17;;;;;;;31.58;27.05;;;4.80;99.90;;;;;;4162985;28;20444;-52
2021/12/22 09:12:19;;;;;;;24.25;22.33;;;4.80;99.90;;;;;;4156580;28;20037;-52
2021/12/22 09:14:22;;;;;;;25.73;23.33;;;4.90;99.90;;;;;;4161645;28;20068;-51
2021/12/22 09:16:24;;;;;;;24.35;22.08;;;5.00;99.90;;;;;;4159650;28;20061;-52
2021/12/22 09:18:26;;;;;;;24.58;22.15;;;5.00;99.90;;;;;;4161003;28;20088;-53
2021/12/22 09:20:29;;;;;;;22.13;20.17;;;5.10;99.90;;;;;;4159867;28;20581;-52
2021/12/22 09:22:31;;;;;;;23.50;21.35;;;5.10;99.90;;;;;;4162032;28;20041;-52
2021/12/22 09:24:33;;;;;;;25.42;22.90;;;5.20;99.90;;;;;;4160634;28;20109;-53
2021/12/22 09:26:36;;;;;;;27.77;24.77;;;5.30;99.90;;;;;;4162994;28;20041;-52
2021/12/22 09:28:38;;;;;;;24.02;21.67;;;5.40;99.90;;;;;;4160132;28;20521;-53
2021/12/22 09:30:43;;;;;;;23.38;21.23;;;5.40;99.90;;;;;;4162565;28;20050;-51
2021/12/22 09:32:45;;;;;;;25.63;23.05;;;5.40;99.90;;;;;;4160689;28;20042;-53
2021/12/22 09:34:49;;;;;;;37.30;31.80;;;5.40;99.90;;;;;;4159590;28;20037;-52
2021/12/22 09:36:51;;;;;;;32.33;28.98;;;5.40;99.90;;;;;;4160729;28;20038;-52
2021/12/22 09:38:53;;;;;;;30.90;27.27;;;5.50;99.90;;;;;;4161781;28;20486;-53
2021/12/22 09:40:55;;;;;;;32.53;29.25;;;5.50;99.90;;;;;;4158458;28;20038;-52
2021/12/22 09:42:58;;;;;;;36.42;28.95;;;5.60;99.90;;;;;;4164649;28;20040;-52
2021/12/22 09:45:01;;;;;;;32.03;28.80;;;5.70;99.90;;;;;;4163761;28;20540;-52
2021/12/22 09:47:05;;;;;;;30.05;27.05;;;5.70;99.90;;;;;;4164436;28;20132;-52
2021/12/22 09:53:35;;;;;;;28.48;24.08;;;5.80;99.90;;;;;;4163362;28;19960;-52
2021/12/22 09:55:37;;;;;;;26.40;23.77;;;5.90;99.90;;;;;;4164789;28;20060;-52
2021/12/22 09:57:40;;;;;;;35.63;29.00;;;6.00;99.90;;;;;;4154404;28;20540;-53
2021/12/22 09:59:42;;;;;;;;;;;6.10;99.90;;;;;;4165942;28;20442;-52
2021/12/22 10:01:44;;;;;;;30.10;24.42;;;6.10;99.90;;;;;;4162505;28;19940;-52
2021/12/22 10:03:46;;;;;;;28.77;25.70;;;6.00;99.90;;;;;;4165338;28;20474;-53
2021/12/22 10:05:49;;;;;;;29.67;26.75;;;6.10;99.90;;;;;;4163839;28;20033;-53
2021/12/22 10:08:13;;;;;;;27.98;25.38;;;6.10;99.90;;;;;;4163240;28;20053;-52
2021/12/22 10:10:16;;;;;;;23.17;21.02;;;6.20;99.90;;;;;;4162952;28;20512;-52
2021/12/22 10:12:26;;;;;;;22.90;20.70;;;6.20;99.90;;;;;;4164673;28;20040;-53
2021/12/22 10:14:28;;;;;;;23.85;21.60;;;6.30;99.90;;;;;;4162923;28;20084;-52
2021/12/22 10:16:30;;;;;;;19.75;17.83;;;6.40;99.90;;;;;;4156130;28;20038;-52
2021/12/22 10:18:32;;;;;;;19.90;18.23;;;6.40;99.90;;;;;;4160872;28;20041;-52
2021/12/22 10:20:35;;;;;;;21.48;19.55;;;6.40;99.90;;;;;;4163010;28;20076;-51
2021/12/22 10:22:39;;;;;;;;;;;6.40;99.90;;;;;;4160434;28;20053;-53
2021/12/22 10:24:43;;;;;;;23.85;21.10;;;6.40;99.90;;;;;;4164367;28;20316;-50
2021/12/22 10:26:45;;;;;;;21.60;19.65;;;6.50;99.90;;;;;;4164403;28;20096;-51
2021/12/22 10:29:05;;;;;;;24.38;22.15;;;6.60;99.90;;;;;;4165116;28;20037;-52
2021/12/22 10:31:07;;;;;;;23.08;20.67;;;6.60;99.90;;;;;;4160438;28;20100;-51
2021/12/22 10:33:18;;;;;;;25.08;22.42;;;6.60;99.90;;;;;;4175214;28;20045;-53
2021/12/22 10:35:31;;;;;;;36.53;30.92;;;6.60;99.90;;;;;;4167317;28;20115;-51
2021/12/22 10:37:40;;;;;;;52.28;46.65;;;6.70;99.90;;;;;;4163479;28;20048;-51
2021/12/22 10:39:43;;;;;;;51.75;46.55;;;6.80;99.90;;;;;;4162789;28;20505;-52
2021/12/22 10:41:45;;;;;;;37.05;33.50;;;6.80;99.90;;;;;;4164156;28;20045;-51
2021/12/22 10:43:51;;;;;;;48.20;43.30;;;7.00;99.90;;;;;;4160732;28;20474;-53
2021/12/22 10:46:00;;;;;;;25.67;23.13;;;7.10;99.90;;;;;;4163241;28;20421;-52
2021/12/22 10:50:27;;;;;;;23.85;21.00;;;7.10;99.90;;;;;;4158977;28;20398;-53
2021/12/22 10:52:31;;;;;;;33.42;29.92;;;7.20;99.90;;;;;;4155712;28;20098;-52
2021/12/22 10:54:36;;;;;;;35.00;31.30;;;7.20;99.90;;;;;;4155012;28;20041;-52
2021/12/22 10:56:41;;;;;;;28.75;26.02;;;7.20;99.90;;;;;;4155577;28;20045;-52